Bei Facebook empfehlenBei Twitter postenGoogle plusPinterest

Das Wetter im Erzgebirge am 12.11.2015

Wetter und Klima am 12.11.2015 Holzhau im Erzgebirge (630m ü.NN)
Letzte gemessene Temperatur und Uhrzeit der Messung23:45:00 Uhr5.40 °C
Temperatur (Maximum / Höchstwert) und Uhrzeit der Messung14:15:00 Uhr11.30 °C
Temperatur (Minimum / Tiefstwert) und Uhrzeit der Messung23:45:005.40 °C
Errechneter Absolutwert der Temperaturschwankungen zwischen Tmin und Tmax des Tages5.90 K
Errechnete Tagesmitteltemperatur7.28462 °C
Gesamt - Niederschlag des Tages (in flüssiger Form)0.00 Liter / m²
Luftdruck (Maximum / Höchstwert) und Zeitpunkt der Messung18:45:00 Uhr1023.60 hPa
Luftdruck (Minimum / Tiefstwert) und Zeitpunkt der Messung03:00:00 Uhr1019.20 hPa
Errechneter Absolutwert der Luftdruckschwankungen des Tages4.40 hPa
Höchste gemessene Windgeschwindigkeit und Uhrzeit der Messung21:00:00 Uhr183.60 km/h
Errechnete Windhäufigkeit in Relation zu den Messwerten des Tages30.00000 %
Niedrigste Windkühle (Windchill) und Zeitpunkt der Messung21:00:00 Uhr-2.90 °C
Taupunkt (Maximum / Höchstwert) und Uhrzeit der Messung14:15:00 Uhr9.00 °C
Taupunkt (Minimum / Tiefstwert) und Uhrzeit der Messung23:45:004.20 °C
Anzahl der automatisch eingelesenen Messwerte 130

Detaillierte Wetter- und Klima- Messwerte für den 12.11.2015 in Holzhau im Erzgebirge (630m ü.NN)
ZeitTemperaturLuftdruckRel. LuftfeuchteWindWindrichtungWindchillTaupunktNiederschlag l/m²
23:45:005.40 °C1022.80 hPa92.00 %4.20 °C 
23:30:005.50 °C1022.70 hPa92.00 %4.30 °C 
23:15:005.80 °C1022.90 hPa91.00 %4.40 °C 
23:00:005.90 °C1023.00 hPa91.00 %4.50 °C 
22:45:005.90 °C1023.20 hPa91.00 %4.50 °C 
22:30:005.90 °C1023.40 hPa91.00 %4.50 °C 
22:15:006.10 °C1023.30 hPa91.00 %4.70 °C 
22:00:006.10 °C1023.20 hPa91.00 %4.70 °C 
21:45:006.10 °C1023.40 hPa91.00 %4.70 °C 
21:30:006.30 °C1023.40 hPa91.00 %4.90 °C 
21:15:006.40 °C1023.50 hPa91.00 %5.00 °C 
21:00:006.60 °C1023.30 hPa90.00 %183.60 km/hOSO-2.90 °C5.10 °C 
20:45:006.80 °C1023.40 hPa90.00 %5.30 °C 
20:30:007.20 °C1023.30 hPa90.00 %5.70 °C 
20:15:007.20 °C1023.30 hPa90.00 %5.70 °C 
20:00:007.60 °C1023.20 hPa90.00 %6.10 °C 
19:45:007.80 °C1023.40 hPa90.00 %6.30 °C 
19:30:007.90 °C1023.30 hPa89.00 %6.20 °C 
19:15:007.90 °C1023.30 hPa89.00 %1.44 km/hOSO7.90 °C6.20 °C 
19:00:008.10 °C1023.40 hPa89.00 %6.40 °C 
18:45:008.20 °C1023.60 hPa89.00 %6.50 °C 
18:30:008.40 °C1023.60 hPa88.00 %6.50 °C 
18:15:008.50 °C1023.50 hPa88.00 %6.60 °C 
18:00:008.60 °C1023.50 hPa88.00 %6.70 °C 
17:45:008.70 °C1023.10 hPa87.00 %6.70 °C 
17:30:008.80 °C1023.20 hPa87.00 %6.80 °C 
17:15:008.90 °C1023.30 hPa87.00 %6.90 °C 
17:00:009.10 °C1023.00 hPa87.00 %7.10 °C 
16:45:009.20 °C1022.90 hPa87.00 %7.20 °C 
16:30:009.30 °C1022.90 hPa86.00 %7.10 °C 
16:15:009.50 °C1022.90 hPa86.00 %7.30 °C 
16:00:009.60 °C1022.90 hPa86.00 %7.40 °C 
15:45:009.90 °C1022.80 hPa85.00 %2.88 km/hNW9.90 °C7.50 °C 
15:30:0010.10 °C1022.70 hPa85.00 %7.70 °C 
15:15:0010.20 °C1022.60 hPa85.00 %7.80 °C 
15:00:0010.40 °C1022.50 hPa85.00 %8.00 °C 
14:45:0010.60 °C1022.50 hPa85.00 %8.20 °C 
14:30:0010.90 °C1022.40 hPa86.00 %9.36 km/hW9.80 °C8.70 °C 
14:15:0011.30 °C1022.40 hPa86.00 %9.00 °C 
14:00:0010.70 °C1022.10 hPa88.00 %10.80 km/hWNW9.30 °C8.80 °C 
13:45:009.90 °C1021.90 hPa89.00 %7.92 km/hWNW8.90 °C8.20 °C 
13:30:009.80 °C1022.10 hPa90.00 %8.20 °C 
13:15:009.60 °C1021.80 hPa90.00 %3.24 km/hWNW9.60 °C8.00 °C 
13:00:009.50 °C1021.80 hPa91.00 %8.10 °C 
12:45:009.30 °C1021.80 hPa92.00 %8.10 °C 
12:30:009.30 °C1022.10 hPa92.00 %8.10 °C 
12:15:009.20 °C1022.00 hPa92.00 %5.76 km/hWNW8.60 °C8.00 °C 
12:00:009.00 °C1022.00 hPa93.00 %7.90 °C 
11:45:008.80 °C1021.90 hPa93.00 %7.70 °C 
11:30:008.60 °C1022.00 hPa93.00 %6.12 km/hW7.80 °C7.50 °C 
11:15:008.30 °C1021.80 hPa93.00 %1.80 km/hNW8.30 °C7.20 °C 
11:00:008.10 °C1021.80 hPa93.00 %7.00 °C 
10:45:007.90 °C1021.80 hPa93.00 %6.80 °C 
10:30:007.70 °C1021.70 hPa93.00 %6.60 °C 
10:15:007.50 °C1021.70 hPa93.00 %6.40 °C 
10:00:007.40 °C1021.70 hPa93.00 %6.30 °C 
09:45:007.40 °C1021.40 hPa93.00 %6.30 °C 
09:30:007.30 °C1021.50 hPa94.00 %2.16 km/hNW7.30 °C6.40 °C 
09:15:007.10 °C1021.30 hPa93.00 %6.00 °C 
09:00:006.90 °C1021.20 hPa93.00 %5.80 °C 
08:45:006.80 °C1021.30 hPa93.00 %2.52 km/hW6.80 °C5.70 °C 
08:30:006.60 °C1020.90 hPa93.00 %5.60 °C 
08:29:006.60 °C1020.90 hPa93.00 %5.60 °C 
08:15:006.40 °C1020.60 hPa93.00 %5.40 °C 
08:14:006.40 °C1020.60 hPa93.00 %5.40 °C 
08:00:006.30 °C1020.70 hPa92.00 %5.10 °C 
07:59:006.30 °C1020.70 hPa92.00 %5.10 °C 
07:45:006.30 °C1020.60 hPa92.00 %5.10 °C 
07:44:006.30 °C1020.60 hPa92.00 %5.10 °C 
07:30:006.30 °C1020.50 hPa91.00 %4.90 °C 
07:29:006.30 °C1020.50 hPa91.00 %4.90 °C 
07:15:006.30 °C1020.20 hPa91.00 %5.40 km/hW5.40 °C4.90 °C 
07:14:006.30 °C1020.20 hPa91.00 %5.40 km/hW5.40 °C4.90 °C 
07:00:006.40 °C1020.20 hPa91.00 %5.00 °C 
06:59:006.40 °C1020.20 hPa91.00 %5.00 °C 
06:45:006.40 °C1019.80 hPa91.00 %3.96 km/hWNW6.40 °C5.00 °C 
06:44:006.40 °C1019.80 hPa91.00 %3.96 km/hWNW6.40 °C5.00 °C 
06:30:006.50 °C1019.90 hPa91.00 %11.88 km/hWNW4.10 °C5.10 °C 
06:29:006.50 °C1019.90 hPa91.00 %11.88 km/hWNW4.10 °C5.10 °C 
06:15:006.50 °C1019.70 hPa91.00 %5.10 °C 
06:14:006.50 °C1019.70 hPa91.00 %5.10 °C 
06:00:006.40 °C1019.60 hPa91.00 %6.84 km/hWNW5.10 °C5.00 °C 
05:59:006.40 °C1019.60 hPa91.00 %6.84 km/hWNW5.10 °C5.00 °C 
05:45:006.40 °C1019.80 hPa91.00 %3.24 km/hSSW6.40 °C5.00 °C 
05:44:006.40 °C1019.80 hPa91.00 %3.24 km/hSSW6.40 °C5.00 °C 
05:30:006.40 °C1019.50 hPa91.00 %5.00 °C 
05:29:006.40 °C1019.50 hPa91.00 %5.00 °C 
05:15:006.40 °C1019.50 hPa92.00 %4.68 km/hWSW6.40 °C5.20 °C 
05:14:006.40 °C1019.50 hPa92.00 %4.68 km/hWSW6.40 °C5.20 °C 
05:00:006.40 °C1019.50 hPa92.00 %5.20 °C 
04:59:006.40 °C1019.50 hPa92.00 %5.20 °C 
04:45:006.40 °C1019.40 hPa92.00 %9.00 km/hW4.50 °C5.20 °C 
04:44:006.40 °C1019.40 hPa92.00 %9.00 km/hW4.50 °C5.20 °C 
04:30:006.30 °C1019.40 hPa93.00 %5.04 km/hWNW5.50 °C5.30 °C 
04:29:006.30 °C1019.40 hPa93.00 %5.04 km/hWNW5.50 °C5.30 °C 
04:15:006.30 °C1019.40 hPa93.00 %5.30 °C 
04:14:006.30 °C1019.40 hPa93.00 %5.30 °C 
04:00:006.40 °C1019.40 hPa93.00 %5.40 °C 
03:59:006.40 °C1019.40 hPa93.00 %5.40 °C 
03:45:006.40 °C1019.40 hPa94.00 %5.50 °C 
03:44:006.40 °C1019.40 hPa94.00 %5.50 °C 
03:30:006.40 °C1019.50 hPa94.00 %5.50 °C 
03:29:006.40 °C1019.50 hPa94.00 %5.50 °C 
03:15:006.50 °C1019.30 hPa94.00 %19.08 km/hSSW3.10 °C5.60 °C 
03:14:006.50 °C1019.30 hPa94.00 %19.08 km/hSSW3.10 °C5.60 °C 
03:00:006.50 °C1019.20 hPa94.00 %4.68 km/hW6.50 °C5.60 °C 
02:59:006.50 °C1019.20 hPa94.00 %4.68 km/hW6.50 °C5.60 °C 
02:45:006.60 °C1019.60 hPa94.00 %2.52 km/hW6.60 °C5.70 °C 
02:44:006.60 °C1019.60 hPa94.00 %2.52 km/hW6.60 °C5.70 °C 
02:30:006.50 °C1019.50 hPa94.00 %5.76 km/hNW5.50 °C5.60 °C 
02:29:006.50 °C1019.50 hPa94.00 %5.76 km/hNW5.50 °C5.60 °C 
02:15:006.50 °C1019.40 hPa94.00 %5.60 °C 
02:14:006.50 °C1019.40 hPa94.00 %5.60 °C 
02:00:006.70 °C1019.40 hPa94.00 %5.80 °C 
01:59:006.70 °C1019.40 hPa94.00 %5.80 °C 
01:45:006.80 °C1019.60 hPa94.00 %5.90 °C 
01:44:006.80 °C1019.60 hPa94.00 %5.90 °C 
01:30:006.80 °C1019.70 hPa94.00 %5.90 °C 
01:29:006.80 °C1019.70 hPa94.00 %5.90 °C 
01:15:006.90 °C1019.50 hPa94.00 %6.00 °C 
01:14:006.90 °C1019.50 hPa94.00 %6.00 °C 
01:00:006.80 °C1019.60 hPa94.00 %5.90 °C 
00:59:006.80 °C1019.60 hPa94.00 %5.90 °C 
00:45:006.60 °C1019.70 hPa94.00 %5.04 km/hW5.90 °C5.70 °C 
00:44:006.60 °C1019.70 hPa94.00 %5.04 km/hW5.90 °C5.70 °C 
00:30:006.70 °C1020.10 hPa94.00 %5.80 °C 
00:29:006.70 °C1020.10 hPa94.00 %5.80 °C 
00:15:006.70 °C1020.30 hPa94.00 %5.80 °C 
00:14:006.70 °C1020.30 hPa94.00 %5.80 °C 
00:00:006.60 °C1020.40 hPa94.00 %9.00 km/hWNW4.80 °C5.70 °C 

Permanenter Link zu dieser Seite: Wetter im Erzgebirge am 12.11.2015
Performance-Info: Die Erstellung der Seite / Statistik(en) / Tabelle(n) erforderte 5 Datenbankserver-Abfrage(n) und dauerte 102 Millisekunden. (Dieser Messwert ist von der Gesamt-Auslastung des Servers abhängig.)
Erzgebirge - Wetter | Erzgebirge - Wetter (Mobilgeräte) | Komplette Klimadatenbank